Time;durP1;ratioP1;P1;durP2;ratioP2;P2;SDS_P1;SDS_P2;PMS_P1;PMS_P2;Temp;Humidity;BMP_temperature;BMP_pressure;BME280_temperature;BME280_humidity;BME280_pressure;Samples;Min_cycle;Max_cycle;Signal;HPM_P1;HPM_P2
2021/11/14 00:01:13;;;;;;;85.53;41.00;;;;;;;2.23;100.00;97880.81;5029464;28;20009;-93
2021/11/14 00:03:40;;;;;;;86.18;41.45;;;;;;;2.55;100.00;97927.56;5028855;28;20021;-91
2021/11/14 00:06:09;;;;;;;104.63;44.40;;;;;;;2.39;100.00;97889.22;5028515;28;20116;-93
2021/11/14 00:08:35;;;;;;;121.88;45.10;;;;;;;2.37;100.00;97899.81;5028003;28;20025;-92
2021/11/14 00:11:15;;;;;;;115.93;46.50;;;;;;;2.36;100.00;97891.94;5028759;28;20027;-91
2021/11/14 00:13:42;;;;;;;163.45;49.22;;;;;;;2.57;100.00;97912.53;5028637;28;20033;-93
2021/11/14 00:16:12;;;;;;;210.20;56.80;;;;;;;2.88;100.00;97950.50;5029635;28;20033;-92
2021/11/14 00:22:07;;;;;;;154.60;54.97;;;;;;;2.78;100.00;97916.41;5061600;28;20039;-93
2021/11/14 00:24:33;;;;;;;156.80;52.33;;;;;;;2.82;100.00;97941.84;5026698;28;20025;-93
2021/11/14 00:27:02;;;;;;;179.18;51.30;;;;;;;2.73;100.00;97920.06;5027767;28;20105;-93
2021/11/14 00:29:27;;;;;;;142.48;47.90;;;;;;;2.90;100.00;97963.66;5029081;28;20090;-91
2021/11/14 00:31:53;;;;;;;134.43;49.10;;;;;;;2.86;100.00;97941.72;5027308;28;20092;-93
2021/11/14 00:34:19;;;;;;;334.33;59.08;;;;;;;2.87;100.00;97953.16;5026899;28;20012;-92
2021/11/14 00:36:45;;;;;;;285.33;59.15;;;;;;;2.80;100.00;97951.59;5028820;28;20477;-92
2021/11/14 00:39:19;;;;;;;335.40;71.43;;;;;;;2.73;100.00;97951.75;5029265;28;20025;-92
2021/11/14 01:38:17;;;;;;;400.95;47.60;;;;;;;3.42;100.00;97890.00;5770264;22;20056;-93
2021/11/14 01:40:45;;;;;;;210.88;46.25;;;;;;;3.39;100.00;97887.44;5046982;28;20032;-91
2021/11/14 01:43:13;;;;;;;136.18;47.97;;;;;;;3.38;100.00;97885.72;5064327;28;20480;-92
2021/11/14 01:45:41;;;;;;;157.32;57.05;;;;;;;3.37;100.00;97891.91;5046330;28;20086;-92
2021/11/14 01:48:09;;;;;;;164.00;58.35;;;;;;;3.34;100.00;97897.28;5047714;28;20021;-93
2021/11/14 01:50:48;;;;;;;158.32;57.78;;;;;;;3.19;100.00;97874.81;5046827;28;20024;-92
2021/11/14 01:53:20;;;;;;;152.27;57.50;;;;;;;3.63;100.00;97936.16;5049078;28;20189;-94
2021/11/14 01:59:11;;;;;;;148.02;57.92;;;;;;;3.28;100.00;97876.31;5085890;28;19928;-93
2021/11/14 02:05:01;;;;;;;127.85;51.60;;;;;;;3.02;100.00;97858.53;5060353;28;20071;-92
2021/11/14 02:07:27;;;;;;;141.55;49.85;;;;;;;3.11;100.00;97874.13;5046396;28;20016;-93
2021/11/14 02:13:20;;;;;;;128.57;48.35;;;;;;;3.34;100.00;97910.50;5081519;28;20040;-93
2021/11/14 02:15:52;;;;;;;126.95;48.00;;;;;;;3.32;100.00;97909.69;5045208;28;20042;-91
2021/11/14 02:18:29;;;;;;;138.10;48.00;;;;;;;3.06;100.00;97880.44;5049001;28;20024;-91
2021/11/14 02:21:01;;;;;;;134.13;48.35;;;;;;;3.25;100.00;97913.41;5046915;28;20056;-92
2021/11/14 02:23:30;;;;;;;150.07;50.47;;;;;;;3.00;100.00;97855.06;5045904;28;20507;-92
2021/11/14 02:25:56;;;;;;;126.30;47.08;;;;;;;3.39;100.00;97921.81;5046710;28;20043;-92
2021/11/14 02:28:27;;;;;;;121.47;47.72;;;;;;;3.09;100.00;97862.75;5045534;28;20028;-92
2021/11/14 02:30:57;;;;;;;136.25;47.20;;;;;;;3.57;100.00;97939.81;5045185;28;20503;-93
2021/11/14 02:33:29;;;;;;;151.88;50.35;;;;;;;2.97;100.00;97838.44;5046009;28;20039;-93
2021/11/14 02:35:59;;;;;;;131.80;50.80;;;;;;;3.18;100.00;97858.97;5047059;28;20519;-94
2021/11/14 02:38:34;;;;;;;134.13;47.63;;;;;;;3.26;100.00;97873.69;5059883;28;20567;-92
2021/11/14 02:41:06;;;;;;;134.95;47.88;;;;;;;3.14;100.00;97846.75;5046261;28;20037;-92
2021/11/14 02:43:32;;;;;;;130.63;47.25;;;;;;;3.37;100.00;97891.03;5047069;28;20048;-94
2021/11/14 02:45:59;;;;;;;137.85;50.17;;;;;;;3.28;100.00;97861.31;5046642;28;20085;-93
2021/11/14 02:51:48;;;;;;;142.55;49.80;;;;;;;3.62;100.00;97919.41;5080760;28;20042;-93
2021/11/14 02:54:17;;;;;;;141.07;52.05;;;;;;;3.57;100.00;97921.28;5046252;28;20031;-91
2021/11/14 02:56:47;;;;;;;131.48;50.47;;;;;;;3.31;100.00;97867.41;5046857;28;20119;-92
2021/11/14 02:59:19;;;;;;;135.32;51.40;;;;;;;3.24;100.00;97848.22;5047166;28;20486;-92
2021/11/14 03:02:33;;;;;;;;;;;;;;;;;;;;;
2021/11/14 03:08:28;;;;;;;141.95;49.30;;;;;;;3.74;100.00;97934.03;4979216;28;20034;-89
2021/11/14 03:10:54;;;;;;;160.93;51.97;;;;;;;3.52;100.00;97911.75;4978937;28;20034;-92
2021/11/14 03:13:23;;;;;;;185.38;56.00;;;;;;;3.65;100.00;97931.66;4978966;28;20076;-92
2021/11/14 03:15:53;;;;;;;144.68;51.28;;;;;;;3.40;100.00;97886.53;5046233;28;20074;-92
2021/11/14 03:18:20;;;;;;;156.90;53.90;;;;;;;3.66;100.00;97912.25;5046801;28;20021;-93
2021/11/14 03:20:50;;;;;;;156.77;54.65;;;;;;;3.72;100.00;97914.72;5044756;28;20024;-93
2021/11/14 03:23:23;;;;;;;167.95;53.65;;;;;;;3.49;100.00;97880.13;5046247;28;20561;-94
2021/11/14 03:25:55;;;;;;;;;;;;;;;3.88;100.00;97934.50;5048940;28;20024;-92
2021/11/14 03:28:24;;;;;;;160.85;51.22;;;;;;;3.76;100.00;97896.06;5063874;28;19916;-93
2021/11/14 03:34:28;;;;;;;161.45;54.20;;;;;;;3.74;100.00;97889.09;5080978;28;20119;-92
2021/11/14 03:37:06;;;;;;;148.68;49.55;;;;;;;3.51;100.00;97843.91;5047567;28;20087;-93
2021/11/14 03:39:36;;;;;;;166.10;48.13;;;;;;;3.79;100.00;97893.31;5047083;28;20048;-91
2021/11/14 03:42:02;;;;;;;121.28;44.38;;;;;;;3.68;100.00;97883.97;5046070;28;20035;-93
2021/11/14 03:48:47;;;;;;;163.25;47.28;;;;;;;4.07;100.00;97932.19;5086786;28;20035;-95
2021/11/14 04:50:27;;;;;;;191.95;62.95;;;;;;;4.34;100.00;97915.44;5555151;22;20082;-94
2021/11/14 04:52:56;;;;;;;161.07;59.75;;;;;;;4.15;100.00;97890.47;5049877;28;20028;-93
2021/11/14 04:55:22;;;;;;;160.02;56.08;;;;;;;4.10;100.00;97900.31;5047230;28;20098;-91
2021/11/14 04:57:55;;;;;;;165.13;55.47;;;;;;;4.19;100.00;97905.34;5048435;28;20016;-93
2021/11/14 05:00:23;;;;;;;165.43;52.22;;;;;;;4.20;100.00;97917.66;5048893;28;20509;-93
2021/11/14 05:02:50;;;;;;;152.07;51.30;;;;;;;4.19;100.00;97905.34;5047358;28;20033;-92
2021/11/14 05:05:16;;;;;;;163.07;50.72;;;;;;;4.37;100.00;97968.31;5048883;28;20024;-93
2021/11/14 05:07:54;;;;;;;151.10;51.83;;;;;;;3.99;100.00;97900.66;5050441;28;20008;-93
2021/11/14 05:10:30;;;;;;;231.90;64.70;;;;;;;4.12;100.00;97920.53;5049515;28;20028;-94
2021/11/14 05:13:20;;;;;;;164.25;52.50;;;;;;;4.30;100.00;97956.19;5049864;28;20070;-94
2021/11/14 05:15:54;;;;;;;194.63;61.17;;;;;;;4.06;100.00;97910.13;5065428;28;20046;-94
2021/11/14 05:18:30;;;;;;;186.95;61.63;;;;;;;4.03;100.00;97891.69;5051082;28;20032;-93
2021/11/14 05:21:17;;;;;;;165.82;56.10;;;;;;;4.27;100.00;97927.16;5047386;28;20052;-92
2021/11/14 05:24:16;;;;;;;153.10;53.80;;;;;;;4.58;100.00;97980.91;5049862;28;20092;-93
2021/11/14 05:26:42;;;;;;;159.80;50.70;;;;;;;4.29;100.00;97933.25;5048118;28;20031;-92
2021/11/14 05:29:42;;;;;;;141.77;49.28;;;;;;;4.13;100.00;97895.81;5046723;28;20488;-92
2021/11/14 05:32:08;;;;;;;146.38;50.55;;;;;;;4.48;100.00;97950.31;5009147;28;20050;-93
2021/11/14 05:34:43;;;;;;;137.10;47.72;;;;;;;4.40;100.00;97947.03;5048771;28;20040;-93
2021/11/14 05:37:09;;;;;;;143.25;46.80;;;;;;;4.26;100.00;97920.13;5049463;28;20081;-76
2021/11/14 05:39:55;;;;;;;134.70;42.38;;;;;;;4.59;100.00;97971.16;5043379;28;20199;-90
2021/11/14 05:47:49;;;;;;;115.15;39.17;;;;;;;4.07;100.00;97921.59;5379281;22;19920;-93
2021/11/14 05:50:15;;;;;;;135.63;39.97;;;;;;;4.14;100.00;97920.50;5046115;28;20115;-90
2021/11/14 05:52:53;;;;;;;124.68;39.20;;;;;;;4.19;100.00;97940.63;5045097;28;20032;-89
2021/11/14 05:55:48;;;;;;;121.20;38.47;;;;;;;4.14;100.00;97928.44;5046747;28;20044;-92
2021/11/14 05:58:25;;;;;;;129.95;42.97;;;;;;;4.23;100.00;97949.34;5047197;28;20052;-91
2021/11/14 06:04:38;;;;;;;116.20;37.90;;;;;;;4.34;100.00;97963.09;5063379;28;20048;-92
2021/11/14 06:07:04;;;;;;;119.18;40.25;;;;;;;4.65;100.00;98022.16;5030528;28;20029;-94
2021/11/14 06:13:19;;;;;;;144.88;44.85;;;;;;;4.31;100.00;97958.78;5063646;28;20024;-94
2021/11/14 06:16:12;;;;;;;132.63;44.38;;;;;;;4.34;100.00;97960.47;5031683;28;20057;-95
2021/11/14 06:18:38;;;;;;;154.25;47.47;;;;;;;4.50;100.00;97993.50;5028400;28;20021;-93
2021/11/14 06:21:52;;;;;;;135.43;43.22;;;;;;;4.75;100.00;98028.94;5025898;28;20128;-91
2021/11/14 06:24:18;;;;;;;144.00;46.85;;;;;;;4.63;100.00;98017.84;5039647;28;20029;-91
2021/11/14 06:27:02;;;;;;;138.85;43.22;;;;;;;4.47;100.00;97995.38;5046465;28;20090;-86
2021/11/14 06:29:47;;;;;;;127.95;42.58;;;;;;;4.37;100.00;97969.19;5047712;28;20047;-89
2021/11/14 06:32:53;;;;;;;130.30;43.75;;;;;;;4.79;100.00;98030.56;5061678;28;20033;-93
2021/11/14 06:35:19;;;;;;;130.63;44.17;;;;;;;4.76;100.00;98025.38;5057393;28;20029;-92
2021/11/14 06:37:48;;;;;;;121.75;39.65;;;;;;;4.57;100.00;98003.00;5057814;28;20051;-90
2021/11/14 06:40:22;;;;;;;139.13;41.35;;;;;;;4.73;100.00;98024.59;5045896;28;20052;-89
2021/11/14 06:42:51;;;;;;;115.97;40.95;;;;;;;4.91;100.00;98014.28;5048161;28;20119;-91
2021/11/14 06:45:17;;;;;;;117.85;41.47;;;;;;;4.89;100.00;97988.75;5043375;28;20506;-92
2021/11/14 06:47:43;;;;;;;112.53;39.78;;;;;;;5.02;100.00;98013.06;5042984;28;20049;-89
2021/11/14 06:50:13;;;;;;;115.32;41.05;;;;;;;4.90;100.00;97991.34;5064704;28;20115;-93
2021/11/14 06:56:04;;;;;;;109.32;42.58;;;;;;;5.02;100.00;97970.63;5090735;28;20071;-93
2021/11/14 06:58:30;;;;;;;182.77;60.47;;;;;;;5.06;100.00;97956.38;5060879;28;20491;-91
2021/11/14 07:16:14;;;;;;;110.95;46.38;;;;;;;5.20;100.00;97940.88;5085250;28;20044;-92
2021/11/14 07:18:39;;;;;;;112.93;46.85;;;;;;;5.79;100.00;98035.16;5055553;28;20020;-78
2021/11/14 07:21:05;;;;;;;111.55;44.22;;;;;;;5.75;100.00;98014.94;5054283;28;20089;-79
2021/11/14 07:23:31;;;;;;;105.97;45.42;;;;;;;5.83;100.00;98023.53;5037041;28;20055;-78
2021/11/14 07:25:57;;;;;;;104.90;45.63;;;;;;;5.83;100.00;98028.81;5047954;28;20028;-78
2021/11/14 07:28:23;;;;;;;102.32;44.20;;;;;;;5.91;100.00;98029.44;5038134;28;20630;-77
2021/11/14 07:30:48;;;;;;;102.03;41.88;;;;;;;6.02;100.00;98036.16;5062719;28;20035;-78
2021/11/14 07:33:14;;;;;;;81.00;36.83;;;;;;;6.13;100.00;98020.69;5060469;28;20460;-77
2021/11/14 07:35:39;;;;;;;72.15;31.85;;;;;;;6.14;100.00;98022.44;5046175;28;20169;-77
2021/11/14 07:38:05;;;;;;;73.10;31.65;;;;;;;6.00;100.00;98021.16;5070607;28;20115;-78
2021/11/14 07:40:31;;;;;;;79.28;33.85;;;;;;;6.25;100.00;98020.25;5063694;28;20028;-77
2021/11/14 07:42:57;;;;;;;67.28;30.73;;;;;;;6.35;100.00;98014.53;5045566;28;20024;-78
2021/11/14 07:45:24;;;;;;;65.05;30.15;;;;;;;6.55;100.00;98027.09;5052280;28;20047;-79
2021/11/14 07:47:51;;;;;;;72.75;30.77;;;;;;;6.67;100.00;98025.75;5042407;28;20040;-78
2021/11/14 07:50:18;;;;;;;55.70;25.63;;;;;;;6.49;100.00;98024.66;5052028;28;20086;-78
2021/11/14 07:52:44;;;;;;;63.40;27.52;;;;;;;6.54;100.00;98038.63;5044021;28;20025;-77
2021/11/14 07:55:10;;;;;;;56.97;27.67;;;;;;;6.53;100.00;98043.06;5067457;28;20039;-79
2021/11/14 07:57:43;;;;;;;56.25;26.63;;;;;;;6.53;100.00;98042.19;5060850;28;20028;-77
2021/11/14 08:00:21;;;;;;;58.88;27.38;;;;;;;6.60;100.00;98032.22;5063637;28;20413;-78
2021/11/14 08:02:47;;;;;;;52.30;26.75;;;;;;;6.73;100.00;98044.09;5048113;28;20153;-78
2021/11/14 08:05:13;;;;;;;54.22;28.73;;;;;;;6.70;100.00;98039.78;5056396;28;20119;-77
2021/11/14 08:07:40;;;;;;;62.58;30.63;;;;;;;6.76;99.77;98038.66;5063908;28;20039;-77
2021/11/14 08:10:07;;;;;;;57.22;27.45;;;;;;;6.75;99.96;98036.94;5054837;28;20078;-79
2021/11/14 08:12:33;;;;;;;63.30;29.67;;;;;;;6.82;98.77;98043.75;5048603;28;20035;-77
2021/11/14 08:14:58;;;;;;;62.15;28.58;;;;;;;6.79;97.42;98036.75;5055665;28;20462;-85
2021/11/14 08:17:25;;;;;;;57.05;27.90;;;;;;;6.65;97.03;98025.78;5062607;28;20038;-89
2021/11/14 08:19:51;;;;;;;61.42;30.10;;;;;;;6.76;96.76;98028.03;5066256;28;20533;-87
2021/11/14 08:22:17;;;;;;;57.75;29.10;;;;;;;6.93;98.08;98037.06;5055295;28;20099;-88
2021/11/14 08:24:43;;;;;;;53.70;25.55;;;;;;;6.87;100.00;98047.94;5062471;28;20074;-89
2021/11/14 08:27:14;;;;;;;50.33;23.45;;;;;;;6.74;100.00;98045.81;5052699;28;20027;-92
2021/11/14 08:29:42;;;;;;;50.50;25.13;;;;;;;6.36;100.00;97970.25;5070556;28;20088;-90
2021/11/14 08:32:16;;;;;;;58.13;24.17;;;;;;;6.78;100.00;98031.50;5050177;28;20036;-94
2021/11/14 08:35:01;;;;;;;49.08;24.33;;;;;;;6.37;100.00;97998.53;5069028;28;20032;-91
2021/11/14 08:37:27;;;;;;;50.08;24.70;;;;;;;6.41;100.00;98016.09;5043916;28;20036;-91
2021/11/14 08:39:53;;;;;;;60.53;25.50;;;;;;;6.58;100.00;98048.22;5049863;28;20157;-88
2021/11/14 08:42:22;;;;;;;58.03;25.90;;;;;;;6.50;100.00;98043.19;5055090;28;20086;-92
2021/11/14 08:44:51;;;;;;;66.40;27.75;;;;;;;6.27;100.00;98018.41;5042685;28;20546;-92
2021/11/14 08:47:19;;;;;;;56.08;27.45;;;;;;;6.27;100.00;98027.25;5042223;28;20492;-91
2021/11/14 08:49:49;;;;;;;59.83;28.85;;;;;;;6.22;100.00;97999.09;5045832;28;20025;-91
2021/11/14 08:52:57;;;;;;;60.42;29.67;;;;;;;6.18;100.00;98006.34;5059893;28;20024;-90
2021/11/14 08:55:25;;;;;;;62.50;29.98;;;;;;;6.51;100.00;98036.09;5052982;28;20040;-90
2021/11/14 08:57:55;;;;;;;66.50;31.83;;;;;;;6.59;100.00;98026.03;5054923;28;20491;-89
2021/11/14 09:00:24;;;;;;;62.28;30.08;;;;;;;6.14;100.00;97999.41;5065149;28;20483;-91
2021/11/14 09:06:14;;;;;;;64.75;31.15;;;;;;;6.13;100.00;97983.53;5100380;28;20043;-91
2021/11/14 09:08:40;;;;;;;62.92;30.25;;;;;;;6.30;100.00;97999.72;5056199;28;20032;-91
2021/11/14 09:11:12;;;;;;;60.38;29.65;;;;;;;6.13;100.00;97962.28;5046053;28;20032;-91
2021/11/14 09:14:07;;;;;;;63.00;29.20;;;;;;;6.37;99.37;97977.28;5049919;28;20029;-92
2021/11/14 09:16:49;;;;;;;63.80;31.75;;;;;;;6.63;97.92;98001.06;5048135;28;20045;-91
2021/11/14 09:19:18;;;;;;;43.53;21.60;;;;;;;6.37;97.65;97940.94;5044988;28;20034;-93
2021/11/14 09:21:51;;;;;;;64.88;29.80;;;;;;;6.48;96.85;97946.72;5011290;28;20268;-93
2021/11/14 09:24:27;;;;;;;64.03;29.80;;;;;;;6.50;98.33;97990.03;4992237;28;20131;-91
2021/11/14 09:26:53;;;;;;;81.28;34.20;;;;;;;6.08;100.00;97948.31;5007724;28;20100;-92
2021/11/14 09:29:19;;;;;;;69.25;33.58;;;;;;;6.11;100.00;97970.31;5011007;28;20030;-91
2021/11/14 09:32:13;;;;;;;74.35;35.20;;;;;;;6.07;100.00;97957.19;5015527;28;20045;-93
2021/11/14 09:34:39;;;;;;;66.15;28.48;;;;;;;6.22;100.00;97956.63;5030140;28;20034;-90
2021/11/14 09:37:13;;;;;;;57.88;26.10;;;;;;;6.24;100.00;97978.69;5011737;28;20026;-91
2021/11/14 09:39:42;;;;;;;57.92;26.08;;;;;;;6.40;100.00;98009.03;5010423;28;20049;-91
2021/11/14 09:42:11;;;;;;;60.35;27.25;;;;;;;6.16;100.00;97952.41;5026939;28;20025;-91
2021/11/14 09:44:37;;;;;;;76.97;35.88;;;;;;;6.73;100.00;98017.53;5030493;28;20029;-90
2021/11/14 09:47:05;;;;;;;65.93;29.75;;;;;;;6.50;100.00;97984.72;5026098;28;20021;-90
2021/11/14 09:49:33;;;;;;;61.55;28.15;;;;;;;6.40;99.50;97982.47;5005987;28;20504;-93
2021/11/14 09:52:01;;;;;;;58.10;27.58;;;;;;;6.07;100.00;97946.56;5023280;28;20095;-89
2021/11/14 09:54:28;;;;;;;66.78;27.05;;;;;;;6.43;99.22;97972.59;5024732;28;20052;-90
2021/11/14 09:56:58;;;;;;;57.05;27.45;;;;;;;6.60;98.37;97979.06;5028002;28;20021;-89
2021/11/14 09:59:27;;;;;;;65.25;30.83;;;;;;;6.69;97.30;97960.94;5041278;28;20029;-90
2021/11/14 10:02:04;;;;;;;66.57;30.00;;;;;;;6.71;96.79;97934.28;5046466;28;20025;-90
2021/11/14 10:04:58;;;;;;;57.10;24.48;;;;;;;7.30;96.75;98016.97;5038970;28;20025;-90
2021/11/14 10:07:32;;;;;;;58.00;25.70;;;;;;;6.88;97.10;97948.66;5033053;28;20033;-91
2021/11/14 10:09:59;;;;;;;62.00;26.05;;;;;;;6.87;98.54;97970.84;5035062;28;20025;-92
2021/11/14 10:12:35;;;;;;;53.42;24.50;;;;;;;7.15;98.20;98021.13;5039822;28;20365;-90
2021/11/14 10:15:07;;;;;;;55.90;26.10;;;;;;;7.14;96.32;98026.53;5050636;28;20060;-92
2021/11/14 10:17:50;;;;;;;58.53;24.95;;;;;;;6.71;98.52;98000.75;5064046;28;20043;-89
2021/11/14 10:20:23;;;;;;;55.90;25.80;;;;;;;6.65;98.87;97998.34;5039982;28;20086;-90
2021/11/14 10:22:53;;;;;;;;;;;;;;;6.91;98.33;98006.16;5054639;28;20025;-82
2021/11/14 10:25:20;;;;;;;80.82;34.45;;;;;;;6.93;98.66;97999.84;5060667;28;19957;-87
2021/11/14 10:27:51;;;;;;;79.75;32.70;;;;;;;6.92;98.43;97973.34;5066384;28;20057;-89
2021/11/14 10:30:24;;;;;;;52.95;24.33;;;;;;;7.35;97.21;98009.66;5047833;28;20408;-88
2021/11/14 10:33:03;;;;;;;53.67;24.70;;;;;;;7.58;93.51;98004.22;5063666;28;20025;-86
2021/11/14 10:35:41;;;;;;;51.22;25.00;;;;;;;7.68;92.60;98005.56;5069536;28;20488;-88
2021/11/14 10:38:10;;;;;;;58.05;28.50;;;;;;;7.62;91.36;97987.19;5035066;28;20044;-88
2021/11/14 10:40:38;;;;;;;51.45;23.35;;;;;;;7.75;91.63;97990.19;5044490;28;20025;-88
2021/11/14 10:43:05;;;;;;;51.67;24.30;;;;;;;7.78;92.23;97990.94;5057967;28;20041;-87
2021/11/14 10:45:34;;;;;;;59.00;28.20;;;;;;;7.66;92.91;97980.78;5045512;28;20057;-87
2021/11/14 10:48:38;;;;;;;62.17;29.02;;;;;;;7.63;93.49;97996.91;5043719;28;20046;-85
2021/11/14 10:51:20;;;;;;;73.25;36.35;;;;;;;7.48;92.71;97955.84;5061939;28;20039;-87
2021/11/14 10:53:48;;;;;;;60.05;28.58;;;;;;;7.61;93.11;97980.13;5062689;28;20174;-84
2021/11/14 10:56:18;;;;;;;58.95;27.45;;;;;;;7.54;93.67;97970.69;5052516;28;20068;-89
2021/11/14 10:58:53;;;;;;;68.75;27.63;;;;;;;7.33;93.93;97958.28;5043009;28;20036;-88
2021/11/14 11:01:24;;;;;;;67.35;31.17;;;;;;;7.39;94.03;97976.66;5071258;28;20063;-85
2021/11/14 11:07:13;;;;;;;62.72;28.98;;;;;;;6.48;97.96;97919.28;5048160;28;20124;-86
2021/11/14 11:13:55;;;;;;;57.35;25.08;;;;;;;6.97;100.00;98001.47;5013259;28;20040;-89
2021/11/14 11:20:12;;;;;;;54.47;23.55;;;;;;;6.71;98.95;97921.88;4973903;28;20031;-86
2021/11/14 11:22:58;;;;;;;61.13;29.25;;;;;;;7.30;98.14;97993.00;4981491;28;20069;-87
2021/11/14 11:25:48;;;;;;;60.65;26.23;;;;;;;7.27;98.46;97982.50;4945929;28;20023;-90
2021/11/14 11:28:19;;;;;;;50.58;23.05;;;;;;;7.13;98.67;97983.09;4986529;28;20035;-87
2021/11/14 11:30:58;;;;;;;50.90;24.13;;;;;;;6.82;99.41;97946.25;5014548;28;20038;-88
2021/11/14 11:33:29;;;;;;;56.80;26.42;;;;;;;7.00;99.83;97981.84;5024822;28;20033;-88
2021/11/14 11:35:55;;;;;;;57.65;25.42;;;;;;;6.82;100.00;97962.19;5034981;28;20036;-87
2021/11/14 11:38:22;;;;;;;51.03;24.38;;;;;;;6.66;99.38;97942.47;5023986;28;20040;-88
2021/11/14 11:40:52;;;;;;;56.03;25.50;;;;;;;6.87;98.80;97954.88;5025318;28;20064;-86
2021/11/14 11:43:18;;;;;;;62.08;28.33;;;;;;;6.98;97.84;97967.75;5029571;28;20034;-88
2021/11/14 11:45:46;;;;;;;49.25;23.00;;;;;;;6.77;97.72;97953.53;5026136;28;20036;-87
2021/11/14 11:48:18;;;;;;;47.08;22.50;;;;;;;6.84;98.92;97978.06;5003722;28;20030;-87
2021/11/14 11:50:43;;;;;;;59.50;25.73;;;;;;;7.05;99.67;97986.06;5012510;28;20118;-88
2021/11/14 11:53:20;;;;;;;51.20;25.33;;;;;;;7.12;97.39;97985.78;5033982;28;20026;-88
2021/11/14 11:55:46;;;;;;;55.85;26.38;;;;;;;7.16;97.04;97974.97;5035126;28;20025;-88
2021/11/14 11:58:17;;;;;;;51.17;24.30;;;;;;;7.41;95.85;97974.81;5019674;28;20120;-88
2021/11/14 12:00:51;;;;;;;50.88;24.40;;;;;;;7.49;95.63;97986.84;5037479;28;20207;-89
2021/11/14 12:03:26;;;;;;;51.90;24.40;;;;;;;7.47;95.58;97983.41;5032432;28;20022;-89
2021/11/14 12:05:54;;;;;;;63.35;25.23;;;;;;;7.32;96.08;97967.22;5020780;28;20025;-88
2021/11/14 12:08:20;;;;;;;61.38;25.92;;;;;;;7.43;96.69;97981.81;5011735;28;20049;-88
2021/11/14 12:10:58;;;;;;;59.25;26.50;;;;;;;7.44;95.85;97974.69;5039182;28;20386;-88
2021/11/14 12:14:34;;;;;;;;;;;;;;;;;;;;;
2021/11/14 12:17:24;;;;;;;53.45;25.92;;;;;;;7.04;98.38;97957.72;4998743;28;20054;-89
2021/11/14 12:19:51;;;;;;;59.33;25.67;;;;;;;7.17;97.53;97963.38;5031301;28;20037;-89
2021/11/14 12:22:18;;;;;;;61.05;27.55;;;;;;;7.30;95.07;97956.63;5030227;28;20120;-89
2021/11/14 12:24:53;;;;;;;63.17;29.80;;;;;;;7.32;95.07;97962.75;5051575;28;20049;-89
2021/11/14 12:27:44;;;;;;;51.45;25.75;;;;;;;7.28;93.38;97973.59;5034366;28;20125;-89
2021/11/14 12:30:16;;;;;;;62.05;26.88;;;;;;;6.90;95.22;97930.84;5003918;28;20516;-89
2021/11/14 12:33:27;;;;;;;58.92;26.45;;;;;;;6.93;96.18;97957.31;5010397;28;20520;-88
2021/11/14 12:35:58;;;;;;;56.63;26.33;;;;;;;7.15;97.49;97991.00;5031171;28;20602;-89
2021/11/14 12:38:26;;;;;;;50.50;23.90;;;;;;;7.24;98.06;98009.22;5037238;28;20042;-88
2021/11/14 12:40:58;;;;;;;56.65;26.23;;;;;;;6.80;99.57;97966.69;5037725;28;20033;-89
2021/11/14 12:43:27;;;;;;;57.25;27.23;;;;;;;6.61;100.00;97955.09;5034554;28;20088;-88
2021/11/14 12:46:11;;;;;;;68.70;28.83;;;;;;;6.73;100.00;97980.31;5027876;28;20059;-88
2021/11/14 12:48:43;;;;;;;61.78;30.42;;;;;;;6.65;100.00;97972.63;5042602;28;20405;-89
2021/11/14 12:51:18;;;;;;;67.18;31.42;;;;;;;6.92;100.00;97984.81;5050585;28;20037;-88
2021/11/14 12:53:59;;;;;;;68.05;31.98;;;;;;;7.09;99.68;98003.63;5043907;28;20032;-89
2021/11/14 12:56:28;;;;;;;58.53;28.60;;;;;;;7.03;98.30;97987.91;5060558;28;20086;-89
2021/11/14 12:58:57;;;;;;;56.35;27.42;;;;;;;7.00;96.76;97972.09;5037195;28;20501;-88
2021/11/14 13:01:26;;;;;;;66.28;30.50;;;;;;;7.06;98.02;97990.44;5035636;28;20390;-88
2021/11/14 13:03:55;;;;;;;67.80;32.08;;;;;;;6.90;98.56;97984.00;5041623;28;20087;-88
2021/11/14 13:06:24;;;;;;;62.65;32.30;;;;;;;6.87;99.35;97994.78;5031378;28;20033;-89
2021/11/14 13:08:51;;;;;;;64.95;30.80;;;;;;;6.94;99.12;98006.03;5035577;28;20036;-88
2021/11/14 13:11:29;;;;;;;65.53;32.13;;;;;;;6.98;99.58;98008.50;5037414;28;20030;-86
2021/11/14 13:14:07;;;;;;;64.72;31.75;;;;;;;6.58;99.98;97957.00;5036108;28;20033;-87
2021/11/14 13:16:33;;;;;;;63.63;31.83;;;;;;;7.13;98.98;98023.00;5053726;28;20045;-89
2021/11/14 13:18:59;;;;;;;69.57;32.38;;;;;;;6.81;98.93;97962.25;5045254;28;20021;-88
2021/11/14 13:21:28;;;;;;;64.18;30.80;;;;;;;6.93;97.83;97972.38;5050655;28;20102;-89
2021/11/14 13:24:07;;;;;;;59.17;29.85;;;;;;;6.97;98.29;98006.78;5072361;28;20499;-88
2021/11/14 13:26:55;;;;;;;58.00;30.70;;;;;;;6.82;98.61;98001.22;5055730;28;20025;-88
2021/11/14 13:29:25;;;;;;;63.88;30.38;;;;;;;6.70;100.00;97989.28;5044620;28;20416;-86
2021/11/14 13:31:56;;;;;;;70.90;31.60;;;;;;;6.71;100.00;97974.16;5068112;28;20059;-91
2021/11/14 13:34:25;;;;;;;64.90;32.80;;;;;;;6.68;99.31;97953.03;5068729;28;20029;-90
2021/11/14 13:36:53;;;;;;;67.95;30.33;;;;;;;7.11;98.21;98021.31;5067770;28;20294;-91
2021/11/14 13:39:35;;;;;;;65.80;31.98;;;;;;;7.14;98.07;98021.19;5078280;28;20559;-77
2021/11/14 13:42:07;;;;;;;63.60;28.88;;;;;;;7.15;97.88;98017.59;5062781;28;20207;-77
2021/11/14 13:44:38;;;;;;;69.53;33.17;;;;;;;7.05;98.63;98009.97;5060738;28;20052;-78
2021/11/14 13:47:25;;;;;;;76.03;32.97;;;;;;;7.04;98.86;98015.38;5041879;28;20127;-78
2021/11/14 13:49:50;;;;;;;68.03;30.92;;;;;;;6.94;98.18;98012.22;5060337;28;20132;-77
2021/11/14 13:52:17;;;;;;;65.63;32.35;;;;;;;6.80;99.71;98006.56;5069444;28;20095;-77
2021/11/14 13:54:52;;;;;;;69.15;32.55;;;;;;;6.90;99.13;98005.28;5056803;28;20108;-77
2021/11/14 13:57:23;;;;;;;66.07;31.63;;;;;;;6.79;100.00;98004.88;5041694;28;20036;-78
2021/11/14 13:59:49;;;;;;;67.65;31.23;;;;;;;6.74;100.00;98006.81;5060573;28;20113;-77
2021/11/14 14:02:15;;;;;;;60.75;28.30;;;;;;;6.81;100.00;98005.66;5037805;28;20041;-78
2021/11/14 14:05:02;;;;;;;58.80;29.65;;;;;;;6.86;100.00;98008.16;5051486;28;20518;-78
2021/11/14 14:07:30;;;;;;;71.00;33.55;;;;;;;6.71;100.00;98011.38;5060095;28;20025;-77
2021/11/14 14:10:16;;;;;;;66.75;31.52;;;;;;;6.63;100.00;98000.19;5044474;28;20047;-82
2021/11/14 14:12:44;;;;;;;69.38;31.58;;;;;;;6.50;100.00;98010.44;5054188;28;20534;-80
2021/11/14 14:15:15;;;;;;;74.45;34.22;;;;;;;6.53;100.00;98003.22;5046498;28;20056;-80
2021/11/14 14:17:41;;;;;;;71.88;33.45;;;;;;;6.50;100.00;97994.47;5053805;28;20032;-84
2021/11/14 14:20:09;;;;;;;74.45;35.30;;;;;;;6.57;100.00;98000.44;5066296;28;20020;-80
2021/11/14 14:22:36;;;;;;;72.40;34.17;;;;;;;6.65;100.00;98003.66;5045480;28;20024;-77
2021/11/14 14:25:06;;;;;;;67.72;34.92;;;;;;;6.59;100.00;98001.22;5071588;28;20127;-78
2021/11/14 14:27:31;;;;;;;144.27;61.88;;;;;;;6.58;100.00;98008.38;5053441;28;20130;-79
2021/11/14 14:30:05;;;;;;;92.13;40.53;;;;;;;6.48;100.00;97996.34;5041401;28;20123;-79
2021/11/14 14:32:30;;;;;;;72.00;35.22;;;;;;;6.41;100.00;97994.84;5063029;28;20063;-76
2021/11/14 14:35:04;;;;;;;69.43;32.83;;;;;;;6.48;100.00;98002.53;5054547;28;20059;-78
2021/11/14 14:37:39;;;;;;;69.18;30.60;;;;;;;6.43;100.00;97996.50;5051848;28;20046;-80
2021/11/14 14:40:06;;;;;;;75.53;34.35;;;;;;;6.47;100.00;97989.28;5039018;28;20016;-85
2021/11/14 14:42:31;;;;;;;64.70;32.78;;;;;;;6.56;100.00;98004.88;5057576;28;20494;-76
2021/11/14 14:44:57;;;;;;;68.15;30.55;;;;;;;6.52;100.00;98001.47;5068182;28;20027;-76
2021/11/14 14:47:23;;;;;;;56.75;27.15;;;;;;;6.33;100.00;97996.94;5042075;28;20061;-76
2021/11/14 14:49:49;;;;;;;66.05;30.52;;;;;;;6.42;100.00;98001.91;5037279;28;20037;-77
2021/11/14 14:52:16;;;;;;;64.72;30.17;;;;;;;6.36;100.00;98003.00;5046271;28;20353;-81